San Elizario, Texas
Current Conditions -  °F | °C
As of 6:41 AM on Sunday 23 Nov 2014 (Local Time) from MMCS Reporting Station
Scattered Clouds Scattered Clouds  
Wind Chill: 52°   Ceiling: Unl
Heat Index: 52°   Visibility: 10mi
Dew Point: 28°   Wind: 12mph
Humidity: 41%   Direction: 270°W
Pressure: 29.85"   Gusts: NA
Location:  31.59°N, 106.27°W
Report Text: MMCS 231341Z 27010KT 10SM SCT250 11/M02 A2985 RMK 8/004 AC LENT NE
Loading
Personal Weather Stations






























Interactive Weather Map New forecast layout! Learn more

10-Day Weather Forecast

Advertisements
Track Severe Weather on mobile